createdAt,value
2023-03-25T00:02:22.115Z,10.30
2023-03-25T00:07:32.239Z,10.20
2023-03-25T00:10:13.507Z,11.40
2023-03-25T00:12:45.485Z,12.15
2023-03-25T00:17:45.372Z,8.85
2023-03-25T00:20:14.985Z,15.45
2023-03-25T00:22:44.902Z,13.57
2023-03-25T00:25:18.688Z,12.55
2023-03-25T00:27:55.065Z,14.18
2023-03-25T00:30:24.338Z,12.48
2023-03-25T00:32:54.454Z,13.65
2023-03-25T00:35:25.758Z,13.40
2023-03-25T00:37:59.738Z,10.23
2023-03-25T00:40:30.280Z,14.63
2023-03-25T00:43:08.248Z,11.45
2023-03-25T00:45:38.102Z,14.45
2023-03-25T00:48:08.314Z,14.40
2023-03-25T00:50:43.591Z,9.70
2023-03-25T00:53:13.243Z,14.18
2023-03-25T00:55:49.274Z,13.73
2023-03-25T00:58:20.760Z,11.70
2023-03-25T01:00:56.311Z,13.40
2023-03-25T01:03:25.931Z,12.55
2023-03-25T01:05:55.750Z,11.13
2023-03-25T01:11:09.348Z,11.10
2023-03-25T01:13:46.339Z,10.40
2023-03-25T01:18:51.514Z,10.38
2023-03-25T01:21:20.745Z,8.10
2023-03-25T01:24:00.190Z,7.32
2023-03-25T01:26:29.952Z,11.05
2023-03-25T01:31:42.729Z,6.63
2023-03-25T01:34:23.864Z,8.07
2023-03-25T01:36:55.120Z,9.10
2023-03-25T01:39:25.143Z,8.55
2023-03-25T01:41:54.948Z,8.90
2023-03-25T01:45:04.788Z,6.55
2023-03-25T01:47:36.200Z,8.90
2023-03-25T01:50:10.428Z,6.70
2023-03-25T01:52:40.397Z,6.65
2023-03-25T01:55:11.018Z,7.88
2023-03-25T01:57:45.968Z,7.07
2023-03-25T02:00:18.690Z,7.55
2023-03-25T02:02:52.322Z,8.25
2023-03-25T02:07:57.556Z,8.32
2023-03-25T02:10:27.226Z,8.60
2023-03-25T02:12:56.579Z,10.73
2023-03-25T02:15:26.303Z,11.98
2023-03-25T02:18:18.184Z,7.57
2023-03-25T02:21:13.837Z,6.88
2023-03-25T02:24:13.800Z,8.63
2023-03-25T02:27:26.797Z,7.68
2023-03-25T02:30:34.216Z,11.73
2023-03-25T02:33:41.870Z,9.30
2023-03-25T02:36:53.243Z,11.90
2023-03-25T02:39:33.096Z,7.93
2023-03-25T02:42:17.758Z,8.00
2023-03-25T02:44:56.165Z,6.70
2023-03-25T02:47:33.937Z,9.40
2023-03-25T02:50:07.420Z,9.23
2023-03-25T02:52:45.352Z,7.18
2023-03-25T02:55:19.142Z,8.48
2023-03-25T02:58:03.763Z,7.47
2023-03-25T03:00:40.087Z,11.07
2023-03-25T03:03:10.732Z,10.88
2023-03-25T03:05:52.226Z,7.45
2023-03-25T03:08:34.087Z,7.55
2023-03-25T03:11:15.156Z,9.15
2023-03-25T03:14:04.773Z,7.82
2023-03-25T03:16:44.865Z,7.88
2023-03-25T03:19:31.255Z,7.80
2023-03-25T03:22:08.217Z,7.07
2023-03-25T03:24:40.772Z,6.70
2023-03-25T03:27:16.649Z,6.20
2023-03-25T03:29:52.327Z,5.72
2023-03-25T03:32:25.368Z,6.53
2023-03-25T03:35:08.985Z,5.85
2023-03-25T03:37:43.276Z,5.72
2023-03-25T03:40:18.322Z,6.80
2023-03-25T03:42:58.310Z,6.88
2023-03-25T03:45:41.171Z,5.32
2023-03-25T03:48:16.189Z,4.97
2023-03-25T03:50:52.455Z,8.38
2023-03-25T03:53:27.450Z,4.95
2023-03-25T03:56:09.179Z,3.90
2023-03-25T03:58:46.730Z,7.20
2023-03-25T04:01:30.353Z,4.88
2023-03-25T04:04:02.299Z,8.00
2023-03-25T04:06:41.490Z,5.25
2023-03-25T04:09:27.216Z,5.65
2023-03-25T04:12:00.446Z,5.13
2023-03-25T04:14:32.975Z,4.65
2023-03-25T04:17:07.440Z,7.25
2023-03-25T04:19:36.736Z,6.07
2023-03-25T04:22:07.870Z,8.30
2023-03-25T04:24:37.341Z,5.13
2023-03-25T04:27:06.643Z,5.68
2023-03-25T04:29:40.000Z,5.82
2023-03-25T04:32:10.959Z,4.78
2023-03-25T04:37:23.649Z,5.57
2023-03-25T04:39:53.625Z,5.37
2023-03-25T04:42:25.666Z,5.53
2023-03-25T04:44:57.409Z,5.97
2023-03-25T04:47:39.708Z,5.35
2023-03-25T04:50:12.493Z,4.97
2023-03-25T04:52:46.878Z,5.60
2023-03-25T04:55:19.141Z,4.32
2023-03-25T04:57:48.933Z,4.07
2023-03-25T05:00:23.727Z,6.25
2023-03-25T05:02:55.603Z,4.57
2023-03-25T05:10:34.154Z,5.38
2023-03-25T05:13:05.004Z,4.82
2023-03-25T05:15:39.324Z,6.87
2023-03-25T05:18:12.253Z,5.05
2023-03-25T05:20:43.582Z,5.78
2023-03-25T05:23:17.495Z,5.72
2023-03-25T05:25:47.255Z,5.35
2023-03-25T05:28:16.612Z,5.18
2023-03-25T05:30:54.759Z,5.63
2023-03-25T05:33:24.578Z,6.40
2023-03-25T05:35:57.058Z,5.63
2023-03-25T05:38:27.680Z,5.50
2023-03-25T05:40:56.899Z,4.93
2023-03-25T05:43:26.404Z,6.65
2023-03-25T05:46:04.715Z,7.85
2023-03-25T05:48:35.475Z,6.30
2023-03-25T05:51:23.255Z,5.68
2023-03-25T05:53:52.944Z,5.28
2023-03-25T05:56:25.352Z,7.38
2023-03-25T05:58:56.072Z,9.27
2023-03-25T06:01:37.108Z,9.25
2023-03-25T06:04:15.128Z,7.00
2023-03-25T06:06:44.451Z,8.63
2023-03-25T06:09:24.344Z,6.80
2023-03-25T06:11:54.431Z,8.75
2023-03-25T06:17:02.341Z,8.15
2023-03-25T06:19:31.606Z,11.73
2023-03-25T06:22:03.468Z,7.65
2023-03-25T06:24:32.731Z,8.90
2023-03-25T06:27:04.639Z,10.63
2023-03-25T06:29:34.346Z,8.10
2023-03-25T06:32:07.778Z,8.50
2023-03-25T06:34:42.175Z,9.93
2023-03-25T06:37:15.384Z,11.32
2023-03-25T06:39:49.505Z,12.60
2023-03-25T06:42:28.254Z,9.73
2023-03-25T06:45:28.570Z,9.48
2023-03-25T06:48:23.308Z,8.93
2023-03-25T06:50:53.034Z,9.35
2023-03-25T06:53:22.467Z,10.15
2023-03-25T06:55:59.242Z,11.23
2023-03-25T06:58:34.426Z,7.75
2023-03-25T07:01:06.619Z,12.60
2023-03-25T07:03:41.769Z,13.27
2023-03-25T07:08:53.701Z,10.82
2023-03-25T07:11:27.913Z,14.10
2023-03-25T07:13:58.717Z,10.43
2023-03-25T07:19:05.741Z,12.63
2023-03-25T07:21:35.973Z,10.05
2023-03-25T07:24:18.520Z,10.35
2023-03-25T07:26:49.233Z,9.75
2023-03-25T07:32:07.631Z,14.43
2023-03-25T07:37:13.012Z,13.20
2023-03-25T07:39:42.189Z,14.38
2023-03-25T07:42:11.910Z,9.77
2023-03-25T07:45:13.998Z,9.68
2023-03-25T07:47:49.653Z,12.90
2023-03-25T07:50:26.224Z,10.20
2023-03-25T07:53:00.857Z,11.25
2023-03-25T07:55:30.236Z,9.60
2023-03-25T07:58:01.614Z,14.52
2023-03-25T08:00:31.640Z,12.43
2023-03-25T08:03:06.563Z,10.13
2023-03-25T08:05:38.038Z,13.30
2023-03-25T08:08:07.968Z,11.45
2023-03-25T08:10:37.211Z,14.45
2023-03-25T08:13:11.884Z,11.55
2023-03-25T08:15:46.372Z,10.32
2023-03-25T08:18:16.164Z,11.18
2023-03-25T08:20:47.519Z,12.15
2023-03-25T08:23:26.341Z,9.45
2023-03-25T08:26:01.512Z,11.60
2023-03-25T08:28:31.082Z,11.05
2023-03-25T08:31:02.141Z,11.00
2023-03-25T08:33:39.273Z,13.15
2023-03-25T08:36:13.699Z,14.52
2023-03-25T08:38:50.072Z,10.90
2023-03-25T08:44:00.278Z,11.77
2023-03-25T08:46:29.678Z,13.10
2023-03-25T08:49:09.479Z,15.25
2023-03-25T08:51:40.853Z,11.63
2023-03-25T08:54:16.780Z,13.70
2023-03-25T08:56:53.855Z,14.13
2023-03-25T08:59:30.032Z,12.88
2023-03-25T09:02:01.416Z,14.52
2023-03-25T09:07:11.531Z,11.82
2023-03-25T09:09:42.329Z,11.57
2023-03-25T09:12:12.672Z,13.20
2023-03-25T09:14:52.054Z,12.63
2023-03-25T09:17:21.857Z,13.25
2023-03-25T09:19:52.845Z,14.88
2023-03-25T09:22:26.242Z,13.07
2023-03-25T09:24:55.674Z,13.77
2023-03-25T09:27:24.905Z,11.30
2023-03-25T09:29:54.189Z,12.77
2023-03-25T09:32:28.495Z,14.32
2023-03-25T09:37:37.360Z,16.13
2023-03-25T09:40:07.933Z,12.98
2023-03-25T09:42:58.364Z,15.25
2023-03-25T09:45:38.729Z,11.27
2023-03-25T09:48:21.272Z,15.82
2023-03-25T09:50:50.807Z,14.18
2023-03-25T09:53:35.588Z,16.48
2023-03-25T09:56:06.539Z,14.25
2023-03-25T09:58:48.616Z,12.60
2023-03-25T10:01:30.660Z,13.80
2023-03-25T10:06:51.441Z,15.77
2023-03-25T10:09:48.288Z,13.65
2023-03-25T10:12:35.243Z,12.95
2023-03-25T10:15:19.426Z,12.27
2023-03-25T10:17:59.762Z,12.85
2023-03-25T10:20:53.402Z,14.77
2023-03-25T10:23:29.986Z,13.90
2023-03-25T10:26:11.680Z,16.38
2023-03-25T10:28:50.697Z,12.52
2023-03-25T10:31:25.036Z,14.52
2023-03-25T10:33:57.398Z,14.65
2023-03-25T10:36:36.456Z,13.13
2023-03-25T10:39:11.790Z,12.45
2023-03-25T10:41:52.718Z,13.25
2023-03-25T10:44:34.948Z,11.23
2023-03-25T10:47:08.659Z,9.82
2023-03-25T10:49:39.297Z,12.52
2023-03-25T10:52:09.659Z,13.68
2023-03-25T10:54:44.422Z,12.52
2023-03-25T10:57:21.450Z,13.15
2023-03-25T11:00:00.459Z,13.50
2023-03-25T11:02:38.205Z,12.85
2023-03-25T11:05:11.273Z,11.02
2023-03-25T11:07:44.621Z,12.07
2023-03-25T11:10:21.028Z,13.23
2023-03-25T11:13:03.714Z,13.25
2023-03-25T11:15:36.652Z,13.95
2023-03-25T11:18:13.908Z,15.00
2023-03-25T11:20:51.862Z,16.73
2023-03-25T11:23:35.739Z,15.50
2023-03-25T11:26:13.906Z,13.65
2023-03-25T11:28:48.744Z,13.80
2023-03-25T11:31:21.775Z,14.00
2023-03-25T11:34:07.743Z,18.88
2023-03-25T11:36:39.916Z,14.60
2023-03-25T11:39:19.706Z,16.30
2023-03-25T11:41:52.506Z,13.98
2023-03-25T11:44:35.369Z,14.75
2023-03-25T11:47:07.133Z,15.32
2023-03-25T11:49:51.846Z,13.10
2023-03-25T11:52:25.482Z,13.43
2023-03-25T11:55:03.829Z,16.75
2023-03-25T11:57:40.882Z,15.02
2023-03-25T12:00:28.653Z,15.65
2023-03-25T12:03:03.989Z,13.45
2023-03-25T12:08:16.397Z,14.48
2023-03-25T12:11:02.037Z,18.05
2023-03-25T12:13:44.221Z,14.30
2023-03-25T12:16:38.078Z,16.23
2023-03-25T12:19:18.084Z,15.18
2023-03-25T12:22:08.641Z,16.65
2023-03-25T12:24:55.899Z,10.40
2023-03-25T12:27:40.018Z,13.80
2023-03-25T12:30:30.366Z,15.30
2023-03-25T12:33:18.583Z,16.40
2023-03-25T12:35:57.780Z,12.52
2023-03-25T12:38:45.784Z,13.68
2023-03-25T12:41:23.116Z,15.15
2023-03-25T12:44:04.150Z,14.00
2023-03-25T12:52:57.987Z,16.90
2023-03-25T12:55:52.301Z,16.77
2023-03-25T12:58:49.492Z,16.27
2023-03-25T13:01:29.480Z,16.85
2023-03-25T13:04:18.158Z,16.55
2023-03-25T13:06:59.191Z,15.93
2023-03-25T13:09:58.655Z,17.58
2023-03-25T13:12:36.303Z,14.45
2023-03-25T13:15:21.763Z,14.73
2023-03-25T13:18:08.764Z,13.52
2023-03-25T13:20:47.016Z,13.20
2023-03-25T13:23:24.700Z,15.00
2023-03-25T13:26:02.002Z,13.35
2023-03-25T13:28:40.311Z,14.32
2023-03-25T13:31:16.105Z,14.32
2023-03-25T13:33:51.646Z,16.48
2023-03-25T13:36:29.870Z,16.90
2023-03-25T13:39:09.370Z,15.13
2023-03-25T13:44:29.343Z,13.77
2023-03-25T13:47:07.764Z,23.20
2023-03-25T13:49:44.080Z,15.70
2023-03-25T13:52:36.202Z,15.43
2023-03-25T13:55:16.134Z,15.43
2023-03-25T13:58:22.902Z,12.23
2023-03-25T14:01:25.442Z,15.13
2023-03-25T14:04:32.013Z,16.60
2023-03-25T14:07:28.923Z,17.20
2023-03-25T14:10:30.459Z,15.57
2023-03-25T14:13:07.467Z,17.58
2023-03-25T14:15:43.100Z,13.93
2023-03-25T14:18:20.856Z,13.00
2023-03-25T14:20:59.222Z,13.27
2023-03-25T14:23:35.132Z,16.13
2023-03-25T14:26:10.317Z,13.45
2023-03-25T14:28:47.718Z,12.45
2023-03-25T14:31:32.158Z,15.50
2023-03-25T14:34:29.904Z,15.60
2023-03-25T14:39:52.600Z,13.77
2023-03-25T14:42:45.404Z,17.65
2023-03-25T14:45:54.162Z,13.90
2023-03-25T14:48:48.334Z,13.93
2023-03-25T14:51:43.516Z,18.08
2023-03-25T14:57:17.574Z,14.57
2023-03-25T14:59:52.313Z,10.15
2023-03-25T15:02:29.328Z,14.93
2023-03-25T15:05:21.341Z,11.98
2023-03-25T15:07:58.716Z,11.07
2023-03-25T15:10:32.089Z,12.82
2023-03-25T15:13:06.680Z,11.68
2023-03-25T15:16:04.098Z,14.98
2023-03-25T15:19:07.678Z,13.10
2023-03-25T15:22:20.737Z,12.50
2023-03-25T15:24:56.107Z,15.55
2023-03-25T15:27:59.524Z,16.23
2023-03-25T15:34:04.345Z,11.75
2023-03-25T15:36:56.276Z,13.68
2023-03-25T15:39:56.864Z,16.30
2023-03-25T15:42:58.296Z,12.52
2023-03-25T15:46:04.918Z,11.60
2023-03-25T15:48:51.875Z,15.60
2023-03-25T15:51:43.189Z,12.02
2023-03-25T15:54:41.622Z,12.13
2023-03-25T15:57:26.488Z,9.73
2023-03-25T16:00:09.577Z,11.65
2023-03-25T16:02:50.770Z,12.23
2023-03-25T16:05:24.762Z,11.90
2023-03-25T16:07:55.473Z,11.13
2023-03-25T16:10:35.940Z,12.38
2023-03-25T16:13:16.449Z,11.38
2023-03-25T16:15:47.520Z,11.27
2023-03-25T16:18:29.032Z,13.45
2023-03-25T16:21:03.247Z,11.93
2023-03-25T16:23:41.222Z,15.35
2023-03-25T16:26:18.557Z,17.90
2023-03-25T16:28:53.862Z,12.80
2023-03-25T16:31:42.681Z,13.63
2023-03-25T16:34:20.573Z,14.35
2023-03-25T16:36:57.720Z,15.00
2023-03-25T16:39:28.576Z,13.48
2023-03-25T16:42:10.541Z,12.52
2023-03-25T16:47:18.371Z,14.32
2023-03-25T16:52:28.776Z,12.60
2023-03-25T16:55:16.875Z,13.23
2023-03-25T16:57:49.134Z,13.70
2023-03-25T17:00:23.381Z,15.13
2023-03-25T17:02:54.886Z,13.63
2023-03-25T17:05:32.385Z,14.65
2023-03-25T17:08:10.360Z,14.63
2023-03-25T17:10:49.974Z,12.57
2023-03-25T17:13:28.032Z,12.98
2023-03-25T17:16:03.843Z,13.30
2023-03-25T17:18:41.244Z,15.25
2023-03-25T17:21:26.341Z,13.68
2023-03-25T17:23:58.283Z,13.93
2023-03-25T17:26:56.897Z,13.65
2023-03-25T17:29:36.982Z,15.77
2023-03-25T17:32:19.938Z,13.60
2023-03-25T17:35:07.849Z,13.88
2023-03-25T17:37:40.603Z,14.07
2023-03-25T17:40:25.227Z,14.43
2023-03-25T17:42:59.754Z,13.25
2023-03-25T17:45:32.466Z,12.48
2023-03-25T17:48:07.657Z,11.93
2023-03-25T17:50:37.786Z,12.57
2023-03-25T17:53:07.721Z,10.02
2023-03-25T17:55:37.453Z,11.48
2023-03-25T17:58:08.180Z,11.30
2023-03-25T18:00:46.391Z,11.52
2023-03-25T18:06:09.346Z,10.68
2023-03-25T18:08:47.292Z,11.40
2023-03-25T18:11:19.876Z,9.75
2023-03-25T18:13:51.118Z,13.38
2023-03-25T18:16:34.054Z,10.70
2023-03-25T18:21:48.430Z,11.20
2023-03-25T18:24:26.708Z,12.38
2023-03-25T18:26:59.345Z,12.88
2023-03-25T18:32:16.390Z,12.15
2023-03-25T18:34:46.792Z,12.60
2023-03-25T18:37:28.968Z,11.80
2023-03-25T18:40:18.618Z,11.73
2023-03-25T18:42:53.500Z,13.05
2023-03-25T18:45:36.461Z,12.25
2023-03-25T18:48:08.961Z,13.32
2023-03-25T18:50:41.906Z,14.63
2023-03-25T18:53:14.650Z,14.48
2023-03-25T18:55:45.915Z,12.48
2023-03-25T18:58:37.939Z,12.27
2023-03-25T19:01:10.692Z,14.73
2023-03-25T19:03:43.009Z,12.95
2023-03-25T19:08:51.886Z,12.98
2023-03-25T19:11:25.017Z,12.18
2023-03-25T19:13:55.484Z,12.80
2023-03-25T19:16:27.990Z,13.95
2023-03-25T19:19:03.086Z,13.15
2023-03-25T19:21:34.401Z,12.18
2023-03-25T19:24:11.570Z,12.27
2023-03-25T19:26:44.916Z,12.23
2023-03-25T19:29:20.232Z,13.02
2023-03-25T19:31:53.004Z,11.93
2023-03-25T19:34:27.545Z,10.93
2023-03-25T19:37:04.909Z,13.57
2023-03-25T19:39:37.770Z,12.50
2023-03-25T19:42:12.713Z,11.20
2023-03-25T19:44:43.204Z,13.80
2023-03-25T19:47:14.361Z,12.20
2023-03-25T19:50:01.999Z,10.27
2023-03-25T19:52:37.883Z,11.40
2023-03-25T19:55:16.931Z,12.32
2023-03-25T19:57:53.151Z,10.45
2023-03-25T20:00:30.362Z,10.73
2023-03-25T20:03:01.832Z,10.15
2023-03-25T20:05:39.301Z,11.63
2023-03-25T20:08:09.558Z,10.05
2023-03-25T20:10:41.397Z,11.65
2023-03-25T20:15:40.969Z,9.77
2023-03-25T20:18:17.158Z,9.40
2023-03-25T20:20:49.138Z,12.98
2023-03-25T20:23:19.021Z,11.13
2023-03-25T20:25:49.510Z,10.40
2023-03-25T20:28:22.574Z,9.70
2023-03-25T20:30:52.671Z,10.52
2023-03-25T20:33:28.908Z,10.70
2023-03-25T20:36:03.412Z,9.50
2023-03-25T20:38:33.656Z,11.63
2023-03-25T20:41:07.302Z,11.55
2023-03-25T20:43:40.879Z,14.02
2023-03-25T20:46:13.516Z,11.57
2023-03-25T20:48:52.373Z,11.55
2023-03-25T20:51:36.285Z,11.45
2023-03-25T20:54:11.710Z,11.25
2023-03-25T20:56:51.072Z,11.55
2023-03-25T20:59:32.516Z,12.70
2023-03-25T21:02:05.435Z,11.38
2023-03-25T21:04:35.537Z,15.15
2023-03-25T21:07:10.272Z,11.75
2023-03-25T21:09:42.771Z,11.88
2023-03-25T21:12:21.799Z,12.65
2023-03-25T21:14:55.789Z,13.10
2023-03-25T21:17:28.780Z,14.32
2023-03-25T21:19:59.299Z,14.32
2023-03-25T21:22:31.259Z,13.38
2023-03-25T21:25:07.121Z,12.05
2023-03-25T21:27:39.472Z,13.17
2023-03-25T21:30:12.228Z,13.38
2023-03-25T21:35:12.491Z,13.27
2023-03-25T21:37:55.778Z,13.43
2023-03-25T21:40:26.864Z,13.45
2023-03-25T21:43:09.992Z,14.38
2023-03-25T21:45:43.019Z,13.02
2023-03-25T21:51:01.134Z,13.95
2023-03-25T21:53:34.191Z,16.10
2023-03-25T21:56:05.769Z,18.40
2023-03-25T21:58:37.473Z,15.52
2023-03-25T22:01:09.979Z,13.93
2023-03-25T22:03:46.042Z,13.48
2023-03-25T22:06:22.061Z,13.70
2023-03-25T22:08:53.781Z,15.45
2023-03-25T22:11:25.223Z,16.45
2023-03-25T22:13:54.541Z,13.73
2023-03-25T22:16:23.827Z,15.18
2023-03-25T22:18:58.316Z,14.90
2023-03-25T22:21:32.764Z,15.50
2023-03-25T22:24:06.544Z,15.23
2023-03-25T22:26:46.976Z,15.43
2023-03-25T22:29:21.306Z,14.13
2023-03-25T22:31:50.621Z,14.63
2023-03-25T22:34:19.790Z,14.60
2023-03-25T22:36:52.710Z,13.90
2023-03-25T22:39:24.976Z,14.13
2023-03-25T22:41:59.332Z,15.57
2023-03-25T22:44:28.756Z,19.02
2023-03-25T22:46:58.220Z,14.68
2023-03-25T22:49:33.364Z,16.63
2023-03-25T22:52:02.638Z,17.27
2023-03-25T22:54:39.117Z,15.57
2023-03-25T22:57:09.497Z,15.55
2023-03-25T22:59:38.906Z,16.48
2023-03-25T23:02:13.325Z,15.93
2023-03-25T23:04:42.644Z,16.77
2023-03-25T23:07:12.047Z,16.58
2023-03-25T23:09:43.452Z,16.70
2023-03-25T23:12:14.617Z,16.48
2023-03-25T23:14:57.142Z,16.95
2023-03-25T23:17:27.262Z,15.63
2023-03-25T23:19:56.630Z,16.95
2023-03-25T23:22:31.578Z,16.85
2023-03-25T23:25:09.344Z,15.50
2023-03-25T23:27:39.117Z,16.60
2023-03-25T23:30:09.926Z,16.15
2023-03-25T23:32:41.597Z,16.47
2023-03-25T23:35:18.758Z,15.85
2023-03-25T23:37:51.158Z,15.65
2023-03-25T23:40:22.449Z,16.70
2023-03-25T23:42:51.887Z,17.13
2023-03-25T23:45:21.077Z,19.35
2023-03-25T23:48:02.811Z,15.82
2023-03-25T23:50:32.271Z,17.98
2023-03-25T23:53:02.163Z,18.00
2023-03-25T23:55:33.474Z,19.27
2023-03-25T23:58:02.763Z,23.40
